createdAt,value
2023-03-30T00:01:15.440Z,0.60
2023-03-30T00:03:43.410Z,1.00
2023-03-30T00:06:11.608Z,1.63
2023-03-30T00:08:38.627Z,0.68
2023-03-30T00:11:17.284Z,0.73
2023-03-30T00:13:44.966Z,0.95
2023-03-30T00:16:14.061Z,0.85
2023-03-30T00:18:42.547Z,1.02
2023-03-30T00:21:11.967Z,0.70
2023-03-30T00:23:39.625Z,1.00
2023-03-30T00:26:07.792Z,0.40
2023-03-30T00:28:34.813Z,0.55
2023-03-30T00:31:03.638Z,1.23
2023-03-30T00:33:44.721Z,0.70
2023-03-30T00:36:17.678Z,0.95
2023-03-30T00:38:45.688Z,0.98
2023-03-30T00:41:12.719Z,1.25
2023-03-30T00:44:02.348Z,1.08
2023-03-30T00:46:32.320Z,1.10
2023-03-30T00:49:06.465Z,1.10
2023-03-30T00:51:37.498Z,1.02
2023-03-30T00:54:10.488Z,1.10
2023-03-30T00:56:37.605Z,1.20
2023-03-30T00:59:05.128Z,0.93
2023-03-30T01:01:38.632Z,1.13
2023-03-30T01:04:08.687Z,1.13
2023-03-30T01:06:36.982Z,1.15
2023-03-30T01:09:05.033Z,0.93
2023-03-30T01:11:32.812Z,1.10
2023-03-30T01:14:03.268Z,1.20
2023-03-30T01:16:37.513Z,1.27
2023-03-30T01:19:43.835Z,1.20
2023-03-30T01:22:23.698Z,1.10
2023-03-30T01:25:09.623Z,1.30
2023-03-30T01:27:57.988Z,1.77
2023-03-30T01:30:55.262Z,1.48
2023-03-30T01:33:28.282Z,1.70
2023-03-30T01:36:34.208Z,1.20
2023-03-30T01:39:07.035Z,1.08
2023-03-30T01:42:09.342Z,1.40
2023-03-30T01:45:20.327Z,1.27
2023-03-30T01:47:59.766Z,1.55
2023-03-30T01:50:35.120Z,1.33
2023-03-30T01:53:13.362Z,1.00
2023-03-30T01:55:53.209Z,1.27
2023-03-30T01:58:27.347Z,1.58
2023-03-30T02:00:57.704Z,1.50
2023-03-30T02:03:31.659Z,1.00
2023-03-30T02:06:09.796Z,1.42
2023-03-30T02:08:38.302Z,0.68
2023-03-30T02:11:06.957Z,0.80
2023-03-30T02:13:36.378Z,1.27
2023-03-30T02:16:10.738Z,1.27
2023-03-30T02:18:38.789Z,0.70
2023-03-30T02:21:05.894Z,1.10
2023-03-30T02:23:37.201Z,0.93
2023-03-30T02:26:04.898Z,0.88
2023-03-30T02:28:32.236Z,1.38
2023-03-30T02:30:58.943Z,1.45
2023-03-30T02:33:42.220Z,0.93
2023-03-30T02:36:19.115Z,0.60
2023-03-30T02:39:05.207Z,0.80
2023-03-30T02:42:00.604Z,0.75
2023-03-30T02:44:56.723Z,1.25
2023-03-30T02:48:09.819Z,0.50
2023-03-30T02:50:59.534Z,0.77
2023-03-30T02:53:32.384Z,1.15
2023-03-30T02:56:07.799Z,0.43
2023-03-30T02:58:44.080Z,0.50
2023-03-30T03:01:25.702Z,0.60
2023-03-30T03:03:58.205Z,0.98
2023-03-30T03:06:27.746Z,0.55
2023-03-30T03:08:55.768Z,0.70
2023-03-30T03:11:23.239Z,0.88
2023-03-30T03:13:50.624Z,0.90
2023-03-30T03:16:17.400Z,0.82
2023-03-30T03:18:45.738Z,1.33
2023-03-30T03:21:14.032Z,1.45
2023-03-30T03:23:42.676Z,0.93
2023-03-30T03:26:11.640Z,0.93
2023-03-30T03:28:38.388Z,1.63
2023-03-30T03:31:06.507Z,0.98
2023-03-30T03:33:33.858Z,1.05
2023-03-30T03:36:02.177Z,1.33
2023-03-30T03:38:29.648Z,1.35
2023-03-30T03:40:58.195Z,0.73
2023-03-30T03:43:27.206Z,0.68
2023-03-30T03:45:53.955Z,0.90
2023-03-30T03:48:23.906Z,0.60
2023-03-30T03:50:52.770Z,1.00
2023-03-30T03:53:20.962Z,1.33
2023-03-30T03:55:47.617Z,1.10
2023-03-30T03:58:16.041Z,1.10
2023-03-30T04:00:42.843Z,1.25
2023-03-30T04:03:10.261Z,1.30
2023-03-30T04:05:36.879Z,1.13
2023-03-30T04:08:05.808Z,1.60
2023-03-30T04:10:32.478Z,1.25
2023-03-30T04:13:00.276Z,1.20
2023-03-30T04:15:28.886Z,1.05
2023-03-30T04:17:59.374Z,1.25
2023-03-30T04:20:29.057Z,1.25
2023-03-30T04:22:57.050Z,1.25
2023-03-30T04:25:26.889Z,1.42
2023-03-30T04:27:53.603Z,1.20
2023-03-30T04:30:23.116Z,1.48
2023-03-30T04:33:03.245Z,1.33
2023-03-30T04:35:31.829Z,1.40
2023-03-30T04:37:58.815Z,1.50
2023-03-30T04:40:25.524Z,2.33
2023-03-30T04:42:52.570Z,2.80
2023-03-30T04:45:19.663Z,2.92
2023-03-30T04:47:47.554Z,2.83
2023-03-30T04:50:15.780Z,2.30
2023-03-30T04:52:42.444Z,2.38
2023-03-30T04:55:13.021Z,2.28
2023-03-30T04:57:40.045Z,1.73
2023-03-30T05:00:09.292Z,2.72
2023-03-30T05:02:36.628Z,1.92
2023-03-30T05:05:03.444Z,2.75
2023-03-30T05:07:31.313Z,1.73
2023-03-30T05:09:59.438Z,1.75
2023-03-30T05:12:26.216Z,1.80
2023-03-30T05:14:52.918Z,1.95
2023-03-30T05:17:19.512Z,1.80
2023-03-30T05:19:46.783Z,2.10
2023-03-30T05:22:14.667Z,1.65
2023-03-30T05:24:41.397Z,1.98
2023-03-30T05:27:08.065Z,1.63
2023-03-30T05:29:34.651Z,1.88
2023-03-30T05:32:01.563Z,1.52
2023-03-30T05:34:28.251Z,1.33
2023-03-30T05:36:56.244Z,1.10
2023-03-30T05:39:24.579Z,0.85
2023-03-30T05:41:51.168Z,1.15
2023-03-30T05:44:21.907Z,1.58
2023-03-30T05:46:49.178Z,2.05
2023-03-30T05:49:17.374Z,2.58
2023-03-30T05:51:44.008Z,2.78
2023-03-30T05:54:13.871Z,1.17
2023-03-30T05:56:43.572Z,1.45
2023-03-30T05:59:11.693Z,1.15
2023-03-30T06:01:38.624Z,0.90
2023-03-30T06:04:08.173Z,1.17
2023-03-30T06:06:34.865Z,1.85
2023-03-30T06:09:04.003Z,2.47
2023-03-30T06:11:31.877Z,0.70
2023-03-30T06:14:00.151Z,0.80
2023-03-30T06:16:30.180Z,0.85
2023-03-30T06:18:58.405Z,2.90
2023-03-30T06:21:25.302Z,3.30
2023-03-30T06:23:53.321Z,3.38
2023-03-30T06:26:19.993Z,2.47
2023-03-30T06:28:46.641Z,2.50
2023-03-30T06:31:13.360Z,1.90
2023-03-30T06:33:41.971Z,2.75
2023-03-30T06:36:13.606Z,3.08
2023-03-30T06:38:42.595Z,2.60
2023-03-30T06:41:11.929Z,3.17
2023-03-30T06:43:39.517Z,3.03
2023-03-30T06:46:08.540Z,2.70
2023-03-30T06:48:35.764Z,2.85
2023-03-30T06:51:03.981Z,2.80
2023-03-30T06:53:30.793Z,2.35
2023-03-30T06:55:59.120Z,2.70
2023-03-30T06:58:28.969Z,2.20
2023-03-30T07:00:55.830Z,2.65
2023-03-30T07:03:22.640Z,1.98
2023-03-30T07:05:50.793Z,2.00
2023-03-30T07:08:21.472Z,1.95
2023-03-30T07:10:48.647Z,2.40
2023-03-30T07:13:18.051Z,1.63
2023-03-30T07:15:46.099Z,2.05
2023-03-30T07:18:13.643Z,1.83
2023-03-30T07:20:40.484Z,1.63
2023-03-30T07:23:07.811Z,1.60
2023-03-30T07:25:34.470Z,2.10
2023-03-30T07:28:02.199Z,1.95
2023-03-30T07:30:29.096Z,1.45
2023-03-30T07:32:58.328Z,1.80
2023-03-30T07:35:25.591Z,2.08
2023-03-30T07:38:01.979Z,1.92
2023-03-30T07:40:42.436Z,1.70
2023-03-30T07:43:10.452Z,1.70
2023-03-30T07:45:37.030Z,2.25
2023-03-30T07:48:03.892Z,2.20
2023-03-30T07:50:30.900Z,2.22
2023-03-30T07:52:57.552Z,1.92
2023-03-30T07:55:24.472Z,1.80
2023-03-30T07:57:51.486Z,2.33
2023-03-30T08:00:19.243Z,2.13
2023-03-30T08:02:45.887Z,2.10
2023-03-30T08:05:13.850Z,2.20
2023-03-30T08:07:40.677Z,1.90
2023-03-30T08:10:09.734Z,2.53
2023-03-30T08:12:36.550Z,2.20
2023-03-30T08:15:04.121Z,2.13
2023-03-30T08:17:32.439Z,2.42
2023-03-30T08:20:00.609Z,2.72
2023-03-30T08:22:27.221Z,2.05
2023-03-30T08:24:55.219Z,2.15
2023-03-30T08:27:21.828Z,2.20
2023-03-30T08:29:50.726Z,2.45
2023-03-30T08:32:17.652Z,2.08
2023-03-30T08:34:44.766Z,2.47
2023-03-30T08:37:12.357Z,3.42
2023-03-30T08:39:39.632Z,1.70
2023-03-30T08:42:28.940Z,1.55
2023-03-30T08:45:03.329Z,2.17
2023-03-30T08:50:26.698Z,1.38
2023-03-30T08:52:53.338Z,1.60
2023-03-30T08:55:24.329Z,1.13
2023-03-30T08:57:54.116Z,1.40
2023-03-30T09:00:34.109Z,1.30
2023-03-30T09:03:27.235Z,1.00
2023-03-30T09:06:00.155Z,1.10
2023-03-30T09:08:29.710Z,0.93
2023-03-30T09:11:01.742Z,1.10
2023-03-30T09:13:33.874Z,1.23
2023-03-30T09:16:22.743Z,0.95
2023-03-30T09:18:54.823Z,0.98
2023-03-30T09:21:25.185Z,0.95
2023-03-30T09:23:53.800Z,0.90
2023-03-30T09:26:46.047Z,0.85
2023-03-30T09:29:22.217Z,0.82
2023-03-30T09:31:54.858Z,0.75
2023-03-30T09:34:41.661Z,0.95
2023-03-30T09:37:22.837Z,1.13
2023-03-30T09:39:50.383Z,1.10
2023-03-30T09:42:35.814Z,0.88
2023-03-30T09:45:16.219Z,0.93
2023-03-30T09:47:44.351Z,0.90
2023-03-30T09:50:17.191Z,0.70
2023-03-30T09:52:57.459Z,0.73
2023-03-30T09:55:32.578Z,1.60
2023-03-30T09:58:20.492Z,0.80
2023-03-30T10:01:14.128Z,0.60
2023-03-30T10:03:42.640Z,0.60
2023-03-30T10:06:17.540Z,0.60
2023-03-30T10:08:51.374Z,0.80
2023-03-30T10:11:30.408Z,0.68
2023-03-30T10:13:58.330Z,0.65
2023-03-30T10:16:28.725Z,0.70
2023-03-30T10:19:00.825Z,0.75
2023-03-30T10:21:39.168Z,0.60
2023-03-30T10:24:11.434Z,0.70
2023-03-30T10:26:39.764Z,0.85
2023-03-30T10:29:18.005Z,1.23
2023-03-30T10:31:48.425Z,0.60
2023-03-30T10:34:37.004Z,0.60
2023-03-30T10:37:10.992Z,0.60
2023-03-30T10:39:41.068Z,0.90
2023-03-30T10:42:12.609Z,0.95
2023-03-30T10:44:49.815Z,0.80
2023-03-30T10:47:36.026Z,0.80
2023-03-30T10:50:37.362Z,0.60
2023-03-30T10:53:22.120Z,0.98
2023-03-30T10:56:20.200Z,0.70
2023-03-30T10:59:02.203Z,0.77
2023-03-30T11:01:50.687Z,0.90
2023-03-30T11:04:34.054Z,0.70
2023-03-30T11:07:02.768Z,0.82
2023-03-30T11:09:36.691Z,0.60
2023-03-30T11:12:16.717Z,0.90
2023-03-30T11:14:49.244Z,0.93
2023-03-30T11:17:44.807Z,0.60
2023-03-30T11:20:20.875Z,0.70
2023-03-30T11:23:02.137Z,1.02
2023-03-30T11:25:46.006Z,0.65
2023-03-30T11:28:32.642Z,1.10
2023-03-30T11:31:09.012Z,0.90
2023-03-30T11:33:53.821Z,0.80
2023-03-30T11:39:29.097Z,0.70
2023-03-30T11:42:09.183Z,0.65
2023-03-30T11:44:36.577Z,0.93
2023-03-30T11:47:29.790Z,0.70
2023-03-30T11:50:14.615Z,0.60
2023-03-30T11:55:50.551Z,0.43
2023-03-30T11:58:35.540Z,0.90
2023-03-30T12:01:11.483Z,0.70
2023-03-30T12:03:56.735Z,0.70
2023-03-30T12:06:31.223Z,0.70
2023-03-30T12:09:04.811Z,1.02
2023-03-30T12:11:38.585Z,0.80
2023-03-30T12:14:41.297Z,0.88
2023-03-30T12:17:33.447Z,0.55
2023-03-30T12:20:18.690Z,0.90
2023-03-30T12:22:52.979Z,1.00
2023-03-30T12:25:52.050Z,0.65
2023-03-30T12:28:29.905Z,0.93
2023-03-30T12:31:11.364Z,0.80
2023-03-30T12:33:48.555Z,0.52
2023-03-30T12:36:26.236Z,1.20
2023-03-30T12:38:57.676Z,0.77
2023-03-30T12:41:27.117Z,0.70
2023-03-30T12:44:09.083Z,0.93
2023-03-30T12:46:44.740Z,1.08
2023-03-30T12:49:41.165Z,0.60
2023-03-30T12:52:33.822Z,0.90
2023-03-30T12:55:22.536Z,0.70
2023-03-30T12:58:10.153Z,0.68
2023-03-30T13:01:04.793Z,0.60
2023-03-30T13:03:40.952Z,0.73
2023-03-30T13:06:30.487Z,0.60
2023-03-30T13:09:15.637Z,0.70
2023-03-30T13:12:08.249Z,0.70
2023-03-30T13:14:40.432Z,0.68
2023-03-30T13:17:19.057Z,0.80
2023-03-30T13:20:15.546Z,0.70
2023-03-30T13:23:11.705Z,0.85
2023-03-30T13:25:59.049Z,1.00
2023-03-30T13:28:32.507Z,0.90
2023-03-30T13:31:09.403Z,0.80
2023-03-30T13:33:42.428Z,1.00
2023-03-30T13:36:24.212Z,0.70
2023-03-30T13:39:27.828Z,0.70
2023-03-30T13:42:20.729Z,0.70
2023-03-30T13:44:57.340Z,0.70
2023-03-30T13:47:42.467Z,0.55
2023-03-30T13:50:31.885Z,0.80
2023-03-30T13:53:02.931Z,0.80
2023-03-30T13:55:44.865Z,1.00
2023-03-30T13:58:17.992Z,0.85
2023-03-30T14:00:55.948Z,0.82
2023-03-30T14:03:30.714Z,0.85
2023-03-30T14:06:08.739Z,0.68
2023-03-30T14:08:38.886Z,0.82
2023-03-30T14:11:18.501Z,1.05
2023-03-30T14:13:49.311Z,0.70
2023-03-30T14:16:25.881Z,0.95
2023-03-30T14:18:54.388Z,0.70
2023-03-30T14:21:24.100Z,0.88
2023-03-30T14:23:55.046Z,0.52
2023-03-30T14:26:27.869Z,0.70
2023-03-30T14:29:06.270Z,0.93
2023-03-30T14:31:41.865Z,0.77
2023-03-30T14:34:28.417Z,0.80
2023-03-30T14:36:58.773Z,0.77
2023-03-30T14:39:25.608Z,0.82
2023-03-30T14:41:53.040Z,0.88
2023-03-30T14:44:24.239Z,0.90
2023-03-30T14:46:55.561Z,0.80
2023-03-30T14:49:28.531Z,1.00
2023-03-30T14:52:21.559Z,0.90
2023-03-30T14:55:02.519Z,0.60
2023-03-30T14:57:43.749Z,0.85
2023-03-30T15:00:21.080Z,0.90
2023-03-30T15:02:57.050Z,0.73
2023-03-30T15:05:28.580Z,0.70
2023-03-30T15:07:55.878Z,0.70
2023-03-30T15:10:37.212Z,0.77
2023-03-30T15:13:09.011Z,0.85
2023-03-30T15:15:36.062Z,0.70
2023-03-30T15:18:05.446Z,0.75
2023-03-30T15:20:32.252Z,0.73
2023-03-30T15:23:00.487Z,0.85
2023-03-30T15:25:36.459Z,0.70
2023-03-30T15:28:11.727Z,0.70
2023-03-30T15:30:42.506Z,0.90
2023-03-30T15:33:35.872Z,0.85
2023-03-30T15:36:12.702Z,0.80
2023-03-30T15:38:58.771Z,0.60
2023-03-30T15:41:48.846Z,1.10
2023-03-30T15:44:20.363Z,1.58
2023-03-30T15:46:49.765Z,0.75
2023-03-30T15:49:19.683Z,0.60
2023-03-30T15:51:48.493Z,0.80
2023-03-30T15:54:19.586Z,0.80
2023-03-30T15:56:49.223Z,0.88
2023-03-30T15:59:19.794Z,0.70
2023-03-30T16:01:55.991Z,0.98
2023-03-30T16:04:24.859Z,1.00
2023-03-30T16:06:53.922Z,1.10
2023-03-30T16:09:22.414Z,0.70
2023-03-30T16:11:49.978Z,0.60
2023-03-30T16:14:22.362Z,0.80
2023-03-30T16:16:49.158Z,0.63
2023-03-30T16:19:19.193Z,0.80
2023-03-30T16:21:46.263Z,0.82
2023-03-30T16:24:13.155Z,0.90
2023-03-30T16:26:39.819Z,1.00
2023-03-30T16:29:19.552Z,0.85
2023-03-30T16:31:46.267Z,0.82
2023-03-30T16:34:12.928Z,0.80
2023-03-30T16:36:39.540Z,0.90
2023-03-30T16:39:17.897Z,0.90
2023-03-30T16:41:44.877Z,0.85
2023-03-30T16:44:12.525Z,0.80
2023-03-30T16:46:40.731Z,0.98
2023-03-30T16:49:18.031Z,1.02
2023-03-30T16:51:44.937Z,0.80
2023-03-30T16:54:27.284Z,0.90
2023-03-30T16:57:02.272Z,0.90
2023-03-30T16:59:31.218Z,0.90
2023-03-30T17:01:59.015Z,1.05
2023-03-30T17:04:26.520Z,0.88
2023-03-30T17:06:55.800Z,0.90
2023-03-30T17:09:23.379Z,1.13
2023-03-30T17:11:50.406Z,0.70
2023-03-30T17:14:18.893Z,0.93
2023-03-30T17:16:46.760Z,1.05
2023-03-30T17:19:14.597Z,0.90
2023-03-30T17:21:43.551Z,0.80
2023-03-30T17:24:11.262Z,0.80
2023-03-30T17:26:38.550Z,1.15
2023-03-30T17:29:06.470Z,1.17
2023-03-30T17:31:33.255Z,1.20
2023-03-30T17:33:59.945Z,1.17
2023-03-30T17:36:28.655Z,1.20
2023-03-30T17:38:55.396Z,1.10
2023-03-30T17:41:23.323Z,1.10
2023-03-30T17:43:49.951Z,2.20
2023-03-30T17:46:18.786Z,6.35
2023-03-30T17:48:46.179Z,2.25
2023-03-30T17:51:12.821Z,2.35
2023-03-30T17:53:39.487Z,2.10
2023-03-30T17:56:07.926Z,1.83
2023-03-30T17:58:36.805Z,1.77
2023-03-30T18:01:06.401Z,1.30
2023-03-30T18:03:33.872Z,1.20
2023-03-30T18:06:02.119Z,1.40
2023-03-30T18:08:30.817Z,1.35
2023-03-30T18:10:59.026Z,2.05
2023-03-30T18:13:27.728Z,2.10
2023-03-30T18:15:56.275Z,3.97
2023-03-30T18:18:25.276Z,6.85
2023-03-30T18:20:59.023Z,8.77
2023-03-30T18:23:25.942Z,5.55
2023-03-30T18:25:53.816Z,3.40
2023-03-30T18:28:28.021Z,3.78
2023-03-30T18:30:57.420Z,3.92
2023-03-30T18:33:24.915Z,4.15
2023-03-30T18:35:53.224Z,3.13
2023-03-30T18:38:21.723Z,3.65
2023-03-30T18:40:50.647Z,5.13
2023-03-30T18:43:17.641Z,10.35
2023-03-30T18:45:46.847Z,6.45
2023-03-30T18:48:16.650Z,2.40
2023-03-30T18:50:49.605Z,3.65
2023-03-30T18:53:24.512Z,4.10
2023-03-30T18:55:53.688Z,3.92
2023-03-30T18:58:26.407Z,4.80
2023-03-30T19:00:54.374Z,3.22
2023-03-30T19:03:22.354Z,2.90
2023-03-30T19:05:50.300Z,3.00
2023-03-30T19:08:22.188Z,4.13
2023-03-30T19:10:51.547Z,1.33
2023-03-30T19:13:20.373Z,2.60
2023-03-30T19:15:48.503Z,2.28
2023-03-30T19:18:18.956Z,1.67
2023-03-30T19:20:46.105Z,1.90
2023-03-30T19:23:14.903Z,2.20
2023-03-30T19:25:43.372Z,0.95
2023-03-30T19:28:11.065Z,1.58
2023-03-30T19:30:39.920Z,1.50
2023-03-30T19:33:09.797Z,1.15
2023-03-30T19:35:36.527Z,1.17
2023-03-30T19:38:03.474Z,1.95
2023-03-30T19:40:30.156Z,1.55
2023-03-30T19:42:56.947Z,1.23
2023-03-30T19:45:24.079Z,1.23
2023-03-30T19:47:51.518Z,1.48
2023-03-30T19:50:21.476Z,1.33
2023-03-30T19:52:50.158Z,1.73
2023-03-30T19:55:19.152Z,1.38
2023-03-30T19:57:46.533Z,0.60
2023-03-30T20:00:16.164Z,1.33
2023-03-30T20:02:47.862Z,1.00
2023-03-30T20:05:15.858Z,0.82
2023-03-30T20:07:44.278Z,7.18
2023-03-30T20:10:13.841Z,2.40
2023-03-30T20:12:40.622Z,5.25
2023-03-30T20:15:08.303Z,5.53
2023-03-30T20:17:36.405Z,10.20
2023-03-30T20:20:09.167Z,7.53
2023-03-30T20:22:37.453Z,10.60
2023-03-30T20:25:08.440Z,7.85
2023-03-30T20:27:36.212Z,1.35
2023-03-30T20:30:04.913Z,2.88
2023-03-30T20:32:31.779Z,3.88
2023-03-30T20:34:58.703Z,1.70
2023-03-30T20:37:25.359Z,2.00
2023-03-30T20:39:52.039Z,4.13
2023-03-30T20:42:26.162Z,5.28
2023-03-30T20:44:53.499Z,3.45
2023-03-30T20:47:23.530Z,2.42
2023-03-30T20:49:50.343Z,2.33
2023-03-30T20:52:17.104Z,2.97
2023-03-30T20:54:44.762Z,3.03
2023-03-30T20:57:12.770Z,2.85
2023-03-30T20:59:41.098Z,0.93
2023-03-30T21:02:07.807Z,1.67
2023-03-30T21:04:34.515Z,2.15
2023-03-30T21:07:01.495Z,2.30
2023-03-30T21:09:28.750Z,0.63
2023-03-30T21:11:55.563Z,1.92
2023-03-30T21:14:24.095Z,1.05
2023-03-30T21:16:51.047Z,1.70
2023-03-30T21:19:17.687Z,0.68
2023-03-30T21:21:44.721Z,1.85
2023-03-30T21:24:12.946Z,2.40
2023-03-30T21:26:40.501Z,0.55
2023-03-30T21:29:07.133Z,1.00
2023-03-30T21:31:33.885Z,2.22
2023-03-30T21:34:00.904Z,3.28
2023-03-30T21:36:27.670Z,4.03
2023-03-30T21:38:56.216Z,3.80
2023-03-30T21:41:24.384Z,3.47
2023-03-30T21:43:51.153Z,3.10
2023-03-30T21:46:22.191Z,2.15
2023-03-30T21:48:53.300Z,2.78
2023-03-30T21:51:27.677Z,3.88
2023-03-30T21:53:55.960Z,5.57
2023-03-30T21:56:24.343Z,2.80
2023-03-30T21:58:52.217Z,3.17
2023-03-30T22:01:21.512Z,2.33
2023-03-30T22:03:48.373Z,8.98
2023-03-30T22:06:17.271Z,1.77
2023-03-30T22:08:45.551Z,2.65
2023-03-30T22:11:14.282Z,0.52
2023-03-30T22:13:41.097Z,2.10
2023-03-30T22:16:29.021Z,6.20
2023-03-30T22:18:55.974Z,1.92
2023-03-30T22:21:24.939Z,2.10
2023-03-30T22:23:54.693Z,3.97
2023-03-30T22:26:22.315Z,2.88
2023-03-30T22:28:49.087Z,1.00
2023-03-30T22:31:16.786Z,2.15
2023-03-30T22:33:43.932Z,2.63
2023-03-30T22:36:16.698Z,1.88
2023-03-30T22:38:44.411Z,0.50
2023-03-30T22:41:12.836Z,1.90
2023-03-30T22:43:39.507Z,3.55
2023-03-30T22:46:06.809Z,4.72
2023-03-30T22:48:34.156Z,6.25
2023-03-30T22:51:08.163Z,6.93
2023-03-30T22:53:35.373Z,4.07
2023-03-30T22:56:02.069Z,5.82
2023-03-30T22:58:28.763Z,2.95
2023-03-30T23:01:12.166Z,3.60
2023-03-30T23:03:40.245Z,2.30
2023-03-30T23:06:07.814Z,2.90
2023-03-30T23:08:34.979Z,4.43
2023-03-30T23:11:05.017Z,1.67
2023-03-30T23:13:33.595Z,1.20
2023-03-30T23:16:00.219Z,6.40
2023-03-30T23:18:28.690Z,2.08
2023-03-30T23:20:59.032Z,5.07
2023-03-30T23:23:25.742Z,4.25
2023-03-30T23:25:52.670Z,4.38
2023-03-30T23:28:19.557Z,1.85
2023-03-30T23:30:46.446Z,3.08
2023-03-30T23:33:13.551Z,6.03
2023-03-30T23:35:44.287Z,3.15
2023-03-30T23:38:11.572Z,4.18
2023-03-30T23:40:38.160Z,2.67
2023-03-30T23:43:04.766Z,2.15
2023-03-30T23:45:31.685Z,2.10
2023-03-30T23:47:59.339Z,6.00
2023-03-30T23:50:28.957Z,7.20
2023-03-30T23:52:56.905Z,2.83
2023-03-30T23:55:24.548Z,3.40
2023-03-30T23:57:51.249Z,3.30
